sensor_id;sensor_type;location;lat;lon;timestamp;P1;P2;P0
73241;PMS5003;65659;49.234;-2.094;2022-12-07T00:03:22;3;3;
73241;PMS5003;65659;49.234;-2.094;2022-12-07T00:05:48;2;2;
73241;PMS5003;65659;49.234;-2.094;2022-12-07T00:08:14;2;2;
73241;PMS5003;65659;49.234;-2.094;2022-12-07T00:10:39;3;3;
73241;PMS5003;65659;49.234;-2.094;2022-12-07T00:13:05;4;4;
73241;PMS5003;65659;49.234;-2.094;2022-12-07T00:15:33;3;3;
73241;PMS5003;65659;49.234;-2.094;2022-12-07T00:17:57;3;3;
73241;PMS5003;65659;49.234;-2.094;2022-12-07T00:20:22;2;2;
73241;PMS5003;65659;49.234;-2.094;2022-12-07T00:22:48;2;2;
73241;PMS5003;65659;49.234;-2.094;2022-12-07T00:25:14;2;2;
73241;PMS5003;65659;49.234;-2.094;2022-12-07T00:27:39;3;3;
73241;PMS5003;65659;49.234;-2.094;2022-12-07T00:30:06;4;3;
73241;PMS5003;65659;49.234;-2.094;2022-12-07T00:32:31;2;2;
73241;PMS5003;65659;49.234;-2.094;2022-12-07T00:34:57;2;2;
73241;PMS5003;65659;49.234;-2.094;2022-12-07T00:37:22;3;3;
73241;PMS5003;65659;49.234;-2.094;2022-12-07T00:39:48;4;3;
73241;PMS5003;65659;49.234;-2.094;2022-12-07T00:42:14;3;3;
73241;PMS5003;65659;49.234;-2.094;2022-12-07T00:44:40;4;3;
73241;PMS5003;65659;49.234;-2.094;2022-12-07T00:47:05;2;2;
73241;PMS5003;65659;49.234;-2.094;2022-12-07T00:49:31;3;3;
73241;PMS5003;65659;49.234;-2.094;2022-12-07T00:51:57;1;1;
73241;PMS5003;65659;49.234;-2.094;2022-12-07T00:54:23;4;4;
73241;PMS5003;65659;49.234;-2.094;2022-12-07T00:56:48;3;3;
73241;PMS5003;65659;49.234;-2.094;2022-12-07T00:59:14;3;3;
73241;PMS5003;65659;49.234;-2.094;2022-12-07T01:01:40;1;1;
73241;PMS5003;65659;49.234;-2.094;2022-12-07T01:04:06;2;2;
73241;PMS5003;65659;49.234;-2.094;2022-12-07T01:06:31;3;3;
73241;PMS5003;65659;49.234;-2.094;2022-12-07T01:08:57;3;3;
73241;PMS5003;65659;49.234;-2.094;2022-12-07T01:11:23;1;1;
73241;PMS5003;65659;49.234;-2.094;2022-12-07T01:13:49;2;2;
73241;PMS5003;65659;49.234;-2.094;2022-12-07T01:16:15;3;3;
73241;PMS5003;65659;49.234;-2.094;2022-12-07T01:18:40;2;2;
73241;PMS5003;65659;49.234;-2.094;2022-12-07T01:21:07;2;2;
73241;PMS5003;65659;49.234;-2.094;2022-12-07T01:23:32;1;1;
73241;PMS5003;65659;49.234;-2.094;2022-12-07T01:25:58;2;2;
73241;PMS5003;65659;49.234;-2.094;2022-12-07T01:28:23;3;3;
73241;PMS5003;65659;49.234;-2.094;2022-12-07T01:33:14;3;2;
73241;PMS5003;65659;49.234;-2.094;2022-12-07T01:35:40;3;3;
73241;PMS5003;65659;49.234;-2.094;2022-12-07T01:38:06;3;3;
73241;PMS5003;65659;49.234;-2.094;2022-12-07T01:40:32;3;3;
73241;PMS5003;65659;49.234;-2.094;2022-12-07T01:42:57;2;2;
73241;PMS5003;65659;49.234;-2.094;2022-12-07T01:47:50;2;2;
73241;PMS5003;65659;49.234;-2.094;2022-12-07T01:50:15;3;3;
73241;PMS5003;65659;49.234;-2.094;2022-12-07T01:52:40;1;1;
73241;PMS5003;65659;49.234;-2.094;2022-12-07T01:55:07;2;2;
73241;PMS5003;65659;49.234;-2.094;2022-12-07T01:57:32;3;3;
73241;PMS5003;65659;49.234;-2.094;2022-12-07T01:59:58;2;2;
73241;PMS5003;65659;49.234;-2.094;2022-12-07T02:02:25;0;0;
73241;PMS5003;65659;49.234;-2.094;2022-12-07T02:04:49;2;2;
73241;PMS5003;65659;49.234;-2.094;2022-12-07T02:07:15;2;2;
73241;PMS5003;65659;49.234;-2.094;2022-12-07T02:09:40;2;2;
73241;PMS5003;65659;49.234;-2.094;2022-12-07T02:12:06;0;0;
73241;PMS5003;65659;49.234;-2.094;2022-12-07T02:14:32;1;1;
73241;PMS5003;65659;49.234;-2.094;2022-12-07T02:17:01;2;2;
73241;PMS5003;65659;49.234;-2.094;2022-12-07T02:19:43;2;2;
73241;PMS5003;65659;49.234;-2.094;2022-12-07T02:21:50;2;2;
73241;PMS5003;65659;49.234;-2.094;2022-12-07T02:24:18;1;1;
73241;PMS5003;65659;49.234;-2.094;2022-12-07T02:26:45;2;2;
73241;PMS5003;65659;49.234;-2.094;2022-12-07T02:29:10;2;2;
73241;PMS5003;65659;49.234;-2.094;2022-12-07T02:31:32;1;1;
73241;PMS5003;65659;49.234;-2.094;2022-12-07T02:34:00;3;2;
73241;PMS5003;65659;49.234;-2.094;2022-12-07T02:36:25;1;1;
73241;PMS5003;65659;49.234;-2.094;2022-12-07T02:38:51;2;2;
73241;PMS5003;65659;49.234;-2.094;2022-12-07T02:41:16;2;2;
73241;PMS5003;65659;49.234;-2.094;2022-12-07T02:43:41;2;2;
73241;PMS5003;65659;49.234;-2.094;2022-12-07T02:46:07;2;2;
73241;PMS5003;65659;49.234;-2.094;2022-12-07T02:48:33;1;1;
73241;PMS5003;65659;49.234;-2.094;2022-12-07T02:50:58;2;2;
73241;PMS5003;65659;49.234;-2.094;2022-12-07T02:53:30;1;1;
73241;PMS5003;65659;49.234;-2.094;2022-12-07T02:55:49;1;1;
73241;PMS5003;65659;49.234;-2.094;2022-12-07T02:58:20;1;1;
73241;PMS5003;65659;49.234;-2.094;2022-12-07T03:00:43;2;2;
73241;PMS5003;65659;49.234;-2.094;2022-12-07T03:03:08;2;2;
73241;PMS5003;65659;49.234;-2.094;2022-12-07T03:05:44;2;2;
73241;PMS5003;65659;49.234;-2.094;2022-12-07T03:08:00;1;1;
73241;PMS5003;65659;49.234;-2.094;2022-12-07T03:10:24;2;2;
73241;PMS5003;65659;49.234;-2.094;2022-12-07T03:12:52;2;2;
73241;PMS5003;65659;49.234;-2.094;2022-12-07T03:15:16;2;2;
73241;PMS5003;65659;49.234;-2.094;2022-12-07T03:17:41;2;2;
73241;PMS5003;65659;49.234;-2.094;2022-12-07T03:20:07;2;2;
73241;PMS5003;65659;49.234;-2.094;2022-12-07T03:22:34;1;1;
73241;PMS5003;65659;49.234;-2.094;2022-12-07T03:24:58;2;2;
73241;PMS5003;65659;49.234;-2.094;2022-12-07T03:27:24;2;2;
73241;PMS5003;65659;49.234;-2.094;2022-12-07T03:29:51;2;2;
73241;PMS5003;65659;49.234;-2.094;2022-12-07T03:32:16;1;1;
73241;PMS5003;65659;49.234;-2.094;2022-12-07T03:34:43;2;2;
73241;PMS5003;65659;49.234;-2.094;2022-12-07T03:37:08;1;1;
73241;PMS5003;65659;49.234;-2.094;2022-12-07T03:39:34;2;2;
73241;PMS5003;65659;49.234;-2.094;2022-12-07T03:41:59;1;1;
73241;PMS5003;65659;49.234;-2.094;2022-12-07T03:44:24;1;1;
73241;PMS5003;65659;49.234;-2.094;2022-12-07T03:46:50;1;1;
73241;PMS5003;65659;49.234;-2.094;2022-12-07T03:49:17;3;2;
73241;PMS5003;65659;49.234;-2.094;2022-12-07T03:51:43;2;2;
73241;PMS5003;65659;49.234;-2.094;2022-12-07T03:54:09;2;2;
73241;PMS5003;65659;49.234;-2.094;2022-12-07T03:56:33;1;1;
73241;PMS5003;65659;49.234;-2.094;2022-12-07T03:58:58;1;1;
73241;PMS5003;65659;49.234;-2.094;2022-12-07T04:01:24;2;2;
73241;PMS5003;65659;49.234;-2.094;2022-12-07T04:03:50;0;0;
73241;PMS5003;65659;49.234;-2.094;2022-12-07T04:06:16;1;1;
73241;PMS5003;65659;49.234;-2.094;2022-12-07T04:08:41;0;0;
73241;PMS5003;65659;49.234;-2.094;2022-12-07T04:11:07;1;1;
73241;PMS5003;65659;49.234;-2.094;2022-12-07T04:13:33;1;1;
73241;PMS5003;65659;49.234;-2.094;2022-12-07T04:15:58;0;0;
73241;PMS5003;65659;49.234;-2.094;2022-12-07T04:18:24;1;1;
73241;PMS5003;65659;49.234;-2.094;2022-12-07T04:20:50;1;1;
73241;PMS5003;65659;49.234;-2.094;2022-12-07T04:23:16;1;1;
73241;PMS5003;65659;49.234;-2.094;2022-12-07T04:25:43;0;0;
73241;PMS5003;65659;49.234;-2.094;2022-12-07T04:28:07;2;2;
73241;PMS5003;65659;49.234;-2.094;2022-12-07T04:30:33;1;1;
73241;PMS5003;65659;49.234;-2.094;2022-12-07T04:32:59;1;1;
73241;PMS5003;65659;49.234;-2.094;2022-12-07T04:35:24;1;1;
73241;PMS5003;65659;49.234;-2.094;2022-12-07T04:37:50;1;1;
73241;PMS5003;65659;49.234;-2.094;2022-12-07T04:40:16;1;1;
73241;PMS5003;65659;49.234;-2.094;2022-12-07T04:42:42;1;0;
73241;PMS5003;65659;49.234;-2.094;2022-12-07T04:45:08;0;0;
73241;PMS5003;65659;49.234;-2.094;2022-12-07T04:47:33;0;0;
73241;PMS5003;65659;49.234;-2.094;2022-12-07T04:49:59;2;2;
73241;PMS5003;65659;49.234;-2.094;2022-12-07T04:52:24;2;1;
73241;PMS5003;65659;49.234;-2.094;2022-12-07T04:54:50;2;1;
73241;PMS5003;65659;49.234;-2.094;2022-12-07T04:57:16;1;0;
73241;PMS5003;65659;49.234;-2.094;2022-12-07T04:59:42;1;1;
73241;PMS5003;65659;49.234;-2.094;2022-12-07T05:02:07;2;2;
73241;PMS5003;65659;49.234;-2.094;2022-12-07T05:04:33;2;2;
73241;PMS5003;65659;49.234;-2.094;2022-12-07T05:06:59;2;2;
73241;PMS5003;65659;49.234;-2.094;2022-12-07T05:09:25;1;1;
73241;PMS5003;65659;49.234;-2.094;2022-12-07T05:11:50;1;1;
73241;PMS5003;65659;49.234;-2.094;2022-12-07T05:14:17;1;1;
73241;PMS5003;65659;49.234;-2.094;2022-12-07T05:16:42;1;1;
73241;PMS5003;65659;49.234;-2.094;2022-12-07T05:19:08;2;1;
73241;PMS5003;65659;49.234;-2.094;2022-12-07T05:21:33;2;2;
73241;PMS5003;65659;49.234;-2.094;2022-12-07T05:23:59;1;1;
73241;PMS5003;65659;49.234;-2.094;2022-12-07T05:26:25;0;0;
73241;PMS5003;65659;49.234;-2.094;2022-12-07T05:28:51;0;0;
73241;PMS5003;65659;49.234;-2.094;2022-12-07T05:31:16;0;0;
73241;PMS5003;65659;49.234;-2.094;2022-12-07T05:33:42;1;1;
73241;PMS5003;65659;49.234;-2.094;2022-12-07T05:36:08;2;2;
73241;PMS5003;65659;49.234;-2.094;2022-12-07T05:38:34;1;1;
73241;PMS5003;65659;49.234;-2.094;2022-12-07T05:41:00;1;1;
73241;PMS5003;65659;49.234;-2.094;2022-12-07T05:43:25;1;1;
73241;PMS5003;65659;49.234;-2.094;2022-12-07T05:45:50;1;1;
73241;PMS5003;65659;49.234;-2.094;2022-12-07T05:48:16;1;1;
73241;PMS5003;65659;49.234;-2.094;2022-12-07T05:50:42;2;2;
73241;PMS5003;65659;49.234;-2.094;2022-12-07T05:53:08;2;2;
73241;PMS5003;65659;49.234;-2.094;2022-12-07T05:55:33;1;1;
73241;PMS5003;65659;49.234;-2.094;2022-12-07T05:57:59;1;1;
73241;PMS5003;65659;49.234;-2.094;2022-12-07T06:00:25;1;1;
73241;PMS5003;65659;49.234;-2.094;2022-12-07T06:02:50;1;0;
73241;PMS5003;65659;49.234;-2.094;2022-12-07T06:05:16;2;1;
73241;PMS5003;65659;49.234;-2.094;2022-12-07T06:07:42;0;0;
73241;PMS5003;65659;49.234;-2.094;2022-12-07T06:10:08;2;2;
73241;PMS5003;65659;49.234;-2.094;2022-12-07T06:12:34;1;1;
73241;PMS5003;65659;49.234;-2.094;2022-12-07T06:14:59;1;1;
73241;PMS5003;65659;49.234;-2.094;2022-12-07T06:17:25;1;1;
73241;PMS5003;65659;49.234;-2.094;2022-12-07T06:19:51;2;1;
73241;PMS5003;65659;49.234;-2.094;2022-12-07T06:22:16;2;2;
73241;PMS5003;65659;49.234;-2.094;2022-12-07T06:24:42;3;3;
73241;PMS5003;65659;49.234;-2.094;2022-12-07T06:27:08;1;1;
73241;PMS5003;65659;49.234;-2.094;2022-12-07T06:29:33;1;1;
73241;PMS5003;65659;49.234;-2.094;2022-12-07T06:31:59;1;1;
73241;PMS5003;65659;49.234;-2.094;2022-12-07T06:34:25;1;1;
73241;PMS5003;65659;49.234;-2.094;2022-12-07T06:36:51;2;2;
73241;PMS5003;65659;49.234;-2.094;2022-12-07T06:39:16;1;1;
73241;PMS5003;65659;49.234;-2.094;2022-12-07T06:41:42;1;1;
73241;PMS5003;65659;49.234;-2.094;2022-12-07T06:44:08;1;1;
73241;PMS5003;65659;49.234;-2.094;2022-12-07T06:46:34;1;1;
73241;PMS5003;65659;49.234;-2.094;2022-12-07T06:48:59;0;0;
73241;PMS5003;65659;49.234;-2.094;2022-12-07T06:51:25;0;0;
73241;PMS5003;65659;49.234;-2.094;2022-12-07T06:53:51;1;1;
73241;PMS5003;65659;49.234;-2.094;2022-12-07T06:56:16;1;1;
73241;PMS5003;65659;49.234;-2.094;2022-12-07T06:58:42;1;1;
73241;PMS5003;65659;49.234;-2.094;2022-12-07T07:01:08;0;0;
73241;PMS5003;65659;49.234;-2.094;2022-12-07T07:03:34;1;1;
73241;PMS5003;65659;49.234;-2.094;2022-12-07T07:05:59;1;1;
73241;PMS5003;65659;49.234;-2.094;2022-12-07T07:08:25;1;1;
73241;PMS5003;65659;49.234;-2.094;2022-12-07T07:10:51;1;1;
73241;PMS5003;65659;49.234;-2.094;2022-12-07T07:13:16;1;1;
73241;PMS5003;65659;49.234;-2.094;2022-12-07T07:15:42;1;1;
73241;PMS5003;65659;49.234;-2.094;2022-12-07T07:18:08;1;1;
73241;PMS5003;65659;49.234;-2.094;2022-12-07T07:20:34;1;1;
73241;PMS5003;65659;49.234;-2.094;2022-12-07T07:22:59;2;2;
73241;PMS5003;65659;49.234;-2.094;2022-12-07T07:25:25;1;1;
73241;PMS5003;65659;49.234;-2.094;2022-12-07T07:27:51;0;0;
73241;PMS5003;65659;49.234;-2.094;2022-12-07T07:30:17;2;2;
73241;PMS5003;65659;49.234;-2.094;2022-12-07T07:32:42;1;1;
73241;PMS5003;65659;49.234;-2.094;2022-12-07T07:35:08;1;1;
73241;PMS5003;65659;49.234;-2.094;2022-12-07T07:37:34;1;1;
73241;PMS5003;65659;49.234;-2.094;2022-12-07T07:39:59;1;1;
73241;PMS5003;65659;49.234;-2.094;2022-12-07T07:42:25;1;1;
73241;PMS5003;65659;49.234;-2.094;2022-12-07T07:44:51;2;2;
73241;PMS5003;65659;49.234;-2.094;2022-12-07T07:47:17;0;0;
73241;PMS5003;65659;49.234;-2.094;2022-12-07T07:49:42;1;1;
73241;PMS5003;65659;49.234;-2.094;2022-12-07T07:52:08;1;1;
73241;PMS5003;65659;49.234;-2.094;2022-12-07T07:54:34;1;1;
73241;PMS5003;65659;49.234;-2.094;2022-12-07T07:57:00;2;2;
73241;PMS5003;65659;49.234;-2.094;2022-12-07T07:59:25;2;2;
73241;PMS5003;65659;49.234;-2.094;2022-12-07T08:01:51;2;1;
73241;PMS5003;65659;49.234;-2.094;2022-12-07T08:04:17;1;1;
73241;PMS5003;65659;49.234;-2.094;2022-12-07T08:06:43;1;1;
73241;PMS5003;65659;49.234;-2.094;2022-12-07T08:09:08;2;2;
73241;PMS5003;65659;49.234;-2.094;2022-12-07T08:11:35;1;1;
73241;PMS5003;65659;49.234;-2.094;2022-12-07T08:14:00;1;1;
73241;PMS5003;65659;49.234;-2.094;2022-12-07T08:16:25;1;1;
73241;PMS5003;65659;49.234;-2.094;2022-12-07T08:18:51;1;1;
73241;PMS5003;65659;49.234;-2.094;2022-12-07T08:21:17;1;1;
73241;PMS5003;65659;49.234;-2.094;2022-12-07T08:23:43;1;1;
73241;PMS5003;65659;49.234;-2.094;2022-12-07T08:26:11;3;3;
73241;PMS5003;65659;49.234;-2.094;2022-12-07T08:28:35;2;1;
73241;PMS5003;65659;49.234;-2.094;2022-12-07T08:31:01;3;3;
73241;PMS5003;65659;49.234;-2.094;2022-12-07T08:33:25;1;1;
73241;PMS5003;65659;49.234;-2.094;2022-12-07T08:35:52;2;2;
73241;PMS5003;65659;49.234;-2.094;2022-12-07T08:38:17;0;0;
73241;PMS5003;65659;49.234;-2.094;2022-12-07T08:40:43;3;3;
73241;PMS5003;65659;49.234;-2.094;2022-12-07T08:43:09;2;2;
73241;PMS5003;65659;49.234;-2.094;2022-12-07T08:45:34;2;2;
73241;PMS5003;65659;49.234;-2.094;2022-12-07T08:48:01;6;6;
73241;PMS5003;65659;49.234;-2.094;2022-12-07T08:50:26;8;7;
73241;PMS5003;65659;49.234;-2.094;2022-12-07T08:52:52;7;7;
73241;PMS5003;65659;49.234;-2.094;2022-12-07T08:55:17;8;8;
73241;PMS5003;65659;49.234;-2.094;2022-12-07T08:57:43;7;7;
73241;PMS5003;65659;49.234;-2.094;2022-12-07T09:00:09;8;7;
73241;PMS5003;65659;49.234;-2.094;2022-12-07T09:02:35;6;6;
73241;PMS5003;65659;49.234;-2.094;2022-12-07T09:05:01;8;8;
73241;PMS5003;65659;49.234;-2.094;2022-12-07T09:07:26;7;7;
73241;PMS5003;65659;49.234;-2.094;2022-12-07T09:09:52;6;6;
73241;PMS5003;65659;49.234;-2.094;2022-12-07T09:12:19;5;5;
73241;PMS5003;65659;49.234;-2.094;2022-12-07T09:14:43;7;6;
73241;PMS5003;65659;49.234;-2.094;2022-12-07T09:17:10;4;4;
73241;PMS5003;65659;49.234;-2.094;2022-12-07T09:19:36;4;4;
73241;PMS5003;65659;49.234;-2.094;2022-12-07T09:22:01;9;5;
73241;PMS5003;65659;49.234;-2.094;2022-12-07T09:24:27;2;2;
73241;PMS5003;65659;49.234;-2.094;2022-12-07T09:26:52;4;4;
73241;PMS5003;65659;49.234;-2.094;2022-12-07T09:29:18;3;3;
73241;PMS5003;65659;49.234;-2.094;2022-12-07T09:31:44;4;4;
73241;PMS5003;65659;49.234;-2.094;2022-12-07T09:34:10;3;3;
73241;PMS5003;65659;49.234;-2.094;2022-12-07T09:36:35;5;4;
73241;PMS5003;65659;49.234;-2.094;2022-12-07T09:39:01;2;2;
73241;PMS5003;65659;49.234;-2.094;2022-12-07T09:41:27;3;3;
73241;PMS5003;65659;49.234;-2.094;2022-12-07T09:43:53;3;3;
73241;PMS5003;65659;49.234;-2.094;2022-12-07T09:46:19;2;2;
73241;PMS5003;65659;49.234;-2.094;2022-12-07T09:48:45;2;2;
73241;PMS5003;65659;49.234;-2.094;2022-12-07T09:51:13;2;2;
73241;PMS5003;65659;49.234;-2.094;2022-12-07T09:53:36;2;2;
73241;PMS5003;65659;49.234;-2.094;2022-12-07T09:56:02;2;1;
73241;PMS5003;65659;49.234;-2.094;2022-12-07T09:58:28;4;3;
73241;PMS5003;65659;49.234;-2.094;2022-12-07T10:00:53;4;4;
73241;PMS5003;65659;49.234;-2.094;2022-12-07T10:03:20;6;5;
73241;PMS5003;65659;49.234;-2.094;2022-12-07T10:05:45;5;5;
73241;PMS5003;65659;49.234;-2.094;2022-12-07T10:08:11;4;3;
73241;PMS5003;65659;49.234;-2.094;2022-12-07T10:10:36;3;3;
73241;PMS5003;65659;49.234;-2.094;2022-12-07T10:13:03;2;2;
73241;PMS5003;65659;49.234;-2.094;2022-12-07T10:17:53;1;1;
73241;PMS5003;65659;49.234;-2.094;2022-12-07T10:20:24;1;1;
73241;PMS5003;65659;49.234;-2.094;2022-12-07T10:27:36;3;3;
73241;PMS5003;65659;49.234;-2.094;2022-12-07T10:30:02;3;2;
73241;PMS5003;65659;49.234;-2.094;2022-12-07T10:32:30;3;3;
73241;PMS5003;65659;49.234;-2.094;2022-12-07T10:34:56;5;5;
73241;PMS5003;65659;49.234;-2.094;2022-12-07T10:37:20;3;3;
73241;PMS5003;65659;49.234;-2.094;2022-12-07T10:39:45;3;3;
73241;PMS5003;65659;49.234;-2.094;2022-12-07T10:42:17;3;3;
73241;PMS5003;65659;49.234;-2.094;2022-12-07T10:44:36;2;2;
73241;PMS5003;65659;49.234;-2.094;2022-12-07T10:47:10;3;3;
73241;PMS5003;65659;49.234;-2.094;2022-12-07T10:49:35;1;1;
73241;PMS5003;65659;49.234;-2.094;2022-12-07T10:51:55;3;3;
73241;PMS5003;65659;49.234;-2.094;2022-12-07T10:54:21;3;3;
73241;PMS5003;65659;49.234;-2.094;2022-12-07T10:56:49;3;3;
73241;PMS5003;65659;49.234;-2.094;2022-12-07T10:59:17;4;4;
73241;PMS5003;65659;49.234;-2.094;2022-12-07T11:01:45;3;3;
73241;PMS5003;65659;49.234;-2.094;2022-12-07T11:04:12;3;3;
73241;PMS5003;65659;49.234;-2.094;2022-12-07T11:06:30;2;2;
73241;PMS5003;65659;49.234;-2.094;2022-12-07T11:08:59;2;2;
73241;PMS5003;65659;49.234;-2.094;2022-12-07T11:11:21;3;3;
73241;PMS5003;65659;49.234;-2.094;2022-12-07T11:13:47;2;2;
73241;PMS5003;65659;49.234;-2.094;2022-12-07T11:18:39;3;3;
73241;PMS5003;65659;49.234;-2.094;2022-12-07T11:21:05;2;2;
73241;PMS5003;65659;49.234;-2.094;2022-12-07T11:23:30;3;3;
73241;PMS5003;65659;49.234;-2.094;2022-12-07T11:25:56;3;3;
73241;PMS5003;65659;49.234;-2.094;2022-12-07T11:28:24;8;7;
73241;PMS5003;65659;49.234;-2.094;2022-12-07T11:30:48;6;6;
73241;PMS5003;65659;49.234;-2.094;2022-12-07T11:33:14;9;8;
73241;PMS5003;65659;49.234;-2.094;2022-12-07T11:35:40;8;8;
73241;PMS5003;65659;49.234;-2.094;2022-12-07T11:38:07;6;6;
73241;PMS5003;65659;49.234;-2.094;2022-12-07T11:40:30;6;6;
73241;PMS5003;65659;49.234;-2.094;2022-12-07T11:42:57;6;6;
73241;PMS5003;65659;49.234;-2.094;2022-12-07T11:45:21;6;6;
73241;PMS5003;65659;49.234;-2.094;2022-12-07T11:47:47;6;6;
73241;PMS5003;65659;49.234;-2.094;2022-12-07T11:50:16;6;6;
73241;PMS5003;65659;49.234;-2.094;2022-12-07T11:52:40;6;6;
73241;PMS5003;65659;49.234;-2.094;2022-12-07T11:55:04;8;8;
73241;PMS5003;65659;49.234;-2.094;2022-12-07T11:57:31;6;6;
73241;PMS5003;65659;49.234;-2.094;2022-12-07T11:59:58;6;6;
73241;PMS5003;65659;49.234;-2.094;2022-12-07T12:02:21;6;5;
73241;PMS5003;65659;49.234;-2.094;2022-12-07T12:04:49;6;5;
73241;PMS5003;65659;49.234;-2.094;2022-12-07T12:07:14;8;8;
73241;PMS5003;65659;49.234;-2.094;2022-12-07T12:09:41;5;5;
73241;PMS5003;65659;49.234;-2.094;2022-12-07T12:12:10;5;5;
73241;PMS5003;65659;49.234;-2.094;2022-12-07T12:14:35;5;5;
73241;PMS5003;65659;49.234;-2.094;2022-12-07T12:19:26;6;5;
73241;PMS5003;65659;49.234;-2.094;2022-12-07T12:21:48;6;6;
73241;PMS5003;65659;49.234;-2.094;2022-12-07T12:24:12;5;5;
73241;PMS5003;65659;49.234;-2.094;2022-12-07T12:26:38;4;4;
73241;PMS5003;65659;49.234;-2.094;2022-12-07T12:29:05;2;2;
73241;PMS5003;65659;49.234;-2.094;2022-12-07T12:31:36;5;5;
73241;PMS5003;65659;49.234;-2.094;2022-12-07T12:36:23;4;4;
73241;PMS5003;65659;49.234;-2.094;2022-12-07T12:39:07;4;4;
73241;PMS5003;65659;49.234;-2.094;2022-12-07T12:41:13;4;4;
73241;PMS5003;65659;49.234;-2.094;2022-12-07T12:43:47;5;5;
73241;PMS5003;65659;49.234;-2.094;2022-12-07T12:48:30;6;6;
73241;PMS5003;65659;49.234;-2.094;2022-12-07T12:53:21;5;5;
73241;PMS5003;65659;49.234;-2.094;2022-12-07T12:55:49;5;5;
73241;PMS5003;65659;49.234;-2.094;2022-12-07T13:00:40;3;3;
73241;PMS5003;65659;49.234;-2.094;2022-12-07T13:03:03;6;5;
73241;PMS5003;65659;49.234;-2.094;2022-12-07T13:05:29;5;5;
73241;PMS5003;65659;49.234;-2.094;2022-12-07T13:07:58;4;4;
73241;PMS5003;65659;49.234;-2.094;2022-12-07T13:10:28;2;2;
73241;PMS5003;65659;49.234;-2.094;2022-12-07T13:20:04;4;3;
73241;PMS5003;65659;49.234;-2.094;2022-12-07T13:22:37;5;5;
73241;PMS5003;65659;49.234;-2.094;2022-12-07T13:24:55;5;5;
73241;PMS5003;65659;49.234;-2.094;2022-12-07T13:27:21;6;5;
73241;PMS5003;65659;49.234;-2.094;2022-12-07T13:29:46;5;5;
73241;PMS5003;65659;49.234;-2.094;2022-12-07T13:32:17;4;4;
73241;PMS5003;65659;49.234;-2.094;2022-12-07T13:34:39;5;5;
73241;PMS5003;65659;49.234;-2.094;2022-12-07T13:37:09;3;3;
73241;PMS5003;65659;49.234;-2.094;2022-12-07T13:39:33;3;3;
73241;PMS5003;65659;49.234;-2.094;2022-12-07T13:41:55;3;2;
73241;PMS5003;65659;49.234;-2.094;2022-12-07T13:44:21;4;4;
73241;PMS5003;65659;49.234;-2.094;2022-12-07T13:46:49;4;4;
73241;PMS5003;65659;49.234;-2.094;2022-12-07T13:49:19;4;4;
73241;PMS5003;65659;49.234;-2.094;2022-12-07T13:51:39;4;3;
73241;PMS5003;65659;49.234;-2.094;2022-12-07T13:54:08;4;4;
73241;PMS5003;65659;49.234;-2.094;2022-12-07T13:56:32;3;2;
73241;PMS5003;65659;49.234;-2.094;2022-12-07T13:58:56;4;3;
73241;PMS5003;65659;49.234;-2.094;2022-12-07T14:01:21;3;3;
73241;PMS5003;65659;49.234;-2.094;2022-12-07T14:03:56;2;2;
73241;PMS5003;65659;49.234;-2.094;2022-12-07T14:06:21;4;3;
73241;PMS5003;65659;49.234;-2.094;2022-12-07T14:08:44;3;2;
73241;PMS5003;65659;49.234;-2.094;2022-12-07T14:11:04;1;1;
73241;PMS5003;65659;49.234;-2.094;2022-12-07T14:13:31;3;3;
73241;PMS5003;65659;49.234;-2.094;2022-12-07T14:15:56;2;1;
73241;PMS5003;65659;49.234;-2.094;2022-12-07T14:18:26;2;2;
73241;PMS5003;65659;49.234;-2.094;2022-12-07T14:20:47;1;0;
73241;PMS5003;65659;49.234;-2.094;2022-12-07T14:25:45;3;2;
73241;PMS5003;65659;49.234;-2.094;2022-12-07T14:28:09;2;2;
73241;PMS5003;65659;49.234;-2.094;2022-12-07T14:30:31;1;1;
73241;PMS5003;65659;49.234;-2.094;2022-12-07T14:32:57;2;2;
73241;PMS5003;65659;49.234;-2.094;2022-12-07T14:35:22;2;1;
73241;PMS5003;65659;49.234;-2.094;2022-12-07T14:37:47;0;0;
73241;PMS5003;65659;49.234;-2.094;2022-12-07T14:40:14;1;1;
73241;PMS5003;65659;49.234;-2.094;2022-12-07T14:42:39;1;1;
73241;PMS5003;65659;49.234;-2.094;2022-12-07T14:45:05;3;3;
73241;PMS5003;65659;49.234;-2.094;2022-12-07T14:47:30;1;1;
73241;PMS5003;65659;49.234;-2.094;2022-12-07T14:49:56;1;1;
73241;PMS5003;65659;49.234;-2.094;2022-12-07T14:52:23;2;2;
73241;PMS5003;65659;49.234;-2.094;2022-12-07T14:54:48;1;1;
73241;PMS5003;65659;49.234;-2.094;2022-12-07T14:57:14;3;2;
73241;PMS5003;65659;49.234;-2.094;2022-12-07T14:59:39;3;3;
73241;PMS5003;65659;49.234;-2.094;2022-12-07T15:02:05;2;2;
73241;PMS5003;65659;49.234;-2.094;2022-12-07T15:04:31;3;2;
73241;PMS5003;65659;49.234;-2.094;2022-12-07T15:06:57;3;2;
73241;PMS5003;65659;49.234;-2.094;2022-12-07T15:09:22;1;1;
73241;PMS5003;65659;49.234;-2.094;2022-12-07T15:11:48;4;2;
73241;PMS5003;65659;49.234;-2.094;2022-12-07T15:14:13;2;2;
73241;PMS5003;65659;49.234;-2.094;2022-12-07T15:16:40;2;2;
73241;PMS5003;65659;49.234;-2.094;2022-12-07T15:19:05;1;1;
73241;PMS5003;65659;49.234;-2.094;2022-12-07T15:21:31;2;2;
73241;PMS5003;65659;49.234;-2.094;2022-12-07T15:23:57;1;1;
73241;PMS5003;65659;49.234;-2.094;2022-12-07T15:26:23;1;1;
73241;PMS5003;65659;49.234;-2.094;2022-12-07T15:28:48;2;2;
73241;PMS5003;65659;49.234;-2.094;2022-12-07T15:31:15;1;1;
73241;PMS5003;65659;49.234;-2.094;2022-12-07T15:33:40;1;1;
73241;PMS5003;65659;49.234;-2.094;2022-12-07T15:36:06;2;1;
73241;PMS5003;65659;49.234;-2.094;2022-12-07T15:38:31;2;2;
73241;PMS5003;65659;49.234;-2.094;2022-12-07T15:40:57;1;1;
73241;PMS5003;65659;49.234;-2.094;2022-12-07T15:43:23;3;3;
73241;PMS5003;65659;49.234;-2.094;2022-12-07T15:45:49;1;1;
73241;PMS5003;65659;49.234;-2.094;2022-12-07T15:48:14;2;2;
73241;PMS5003;65659;49.234;-2.094;2022-12-07T15:50:40;3;3;
73241;PMS5003;65659;49.234;-2.094;2022-12-07T15:53:05;3;3;
73241;PMS5003;65659;49.234;-2.094;2022-12-07T15:55:31;0;0;
73241;PMS5003;65659;49.234;-2.094;2022-12-07T15:57:57;2;2;
73241;PMS5003;65659;49.234;-2.094;2022-12-07T16:00:23;1;1;
73241;PMS5003;65659;49.234;-2.094;2022-12-07T16:02:48;2;2;
73241;PMS5003;65659;49.234;-2.094;2022-12-07T16:05:14;2;2;
73241;PMS5003;65659;49.234;-2.094;2022-12-07T16:07:40;2;2;
73241;PMS5003;65659;49.234;-2.094;2022-12-07T16:10:06;2;2;
73241;PMS5003;65659;49.234;-2.094;2022-12-07T16:12:31;3;3;
73241;PMS5003;65659;49.234;-2.094;2022-12-07T16:14:57;5;3;
73241;PMS5003;65659;49.234;-2.094;2022-12-07T16:17:22;3;3;
73241;PMS5003;65659;49.234;-2.094;2022-12-07T16:19:48;3;3;
73241;PMS5003;65659;49.234;-2.094;2022-12-07T16:22:13;3;3;
73241;PMS5003;65659;49.234;-2.094;2022-12-07T16:24:39;4;4;
73241;PMS5003;65659;49.234;-2.094;2022-12-07T16:27:05;4;4;
73241;PMS5003;65659;49.234;-2.094;2022-12-07T16:29:31;3;2;
73241;PMS5003;65659;49.234;-2.094;2022-12-07T16:31:56;2;2;
73241;PMS5003;65659;49.234;-2.094;2022-12-07T16:34:22;3;3;
73241;PMS5003;65659;49.234;-2.094;2022-12-07T16:36:48;3;3;
73241;PMS5003;65659;49.234;-2.094;2022-12-07T16:39:14;3;3;
73241;PMS5003;65659;49.234;-2.094;2022-12-07T16:41:40;2;2;
73241;PMS5003;65659;49.234;-2.094;2022-12-07T16:44:06;3;3;
73241;PMS5003;65659;49.234;-2.094;2022-12-07T16:46:31;3;1;
73241;PMS5003;65659;49.234;-2.094;2022-12-07T16:48:56;4;3;
73241;PMS5003;65659;49.234;-2.094;2022-12-07T16:51:22;3;3;
73241;PMS5003;65659;49.234;-2.094;2022-12-07T16:53:48;1;1;
73241;PMS5003;65659;49.234;-2.094;2022-12-07T16:56:14;5;5;
73241;PMS5003;65659;49.234;-2.094;2022-12-07T16:58:38;1;1;
73241;PMS5003;65659;49.234;-2.094;2022-12-07T17:01:08;2;2;